Meadows Of Dan, Virginia
Current Conditions -  °F | °C
As of 6:15 AM on Friday 28 Nov 2014 (Local Time) from KMWK Reporting Station
Overcast Overcast  
Wind Chill: 32°   Ceiling: 4400
Heat Index: 32°   Visibility: 10mi
Dew Point: 18°   Wind: 0mph
Humidity: 56%   Direction: NA
Pressure: 30.31"   Gusts: NA
Location:  36.74°N, 80.39°W
Report Text: KMWK 281115Z AUTO 00000KT 10SM OVC044 00/M08 A3031 RMK AO2 T00001078
Loading
Personal Weather Stations






























Interactive Weather Map New forecast layout! Learn more

10-Day Weather Forecast

Advertisements
Track Severe Weather on mobile